Solway, Minnesota
Current Conditions -  °F | °C
As of 3:13 PM on Tuesday 21 Oct 2014 (Local Time) from KBJI Reporting Station
Clear Clear  
Wind Chill: 55°   Ceiling: Unl
Heat Index: 55°   Visibility: 10mi
Dew Point: 40°   Wind: 18mph
Humidity: 56%   Direction: 130°SE
Pressure: 30.04"   Gusts: NA
Location:  47.52°N, 95.13°W
Report Text: KBJI 212013Z AUTO 13016KT 10SM CLR 13/04 A3004 RMK AO2 T01280042
Loading
Personal Weather Stations






























Interactive Weather Map
Tropical Storm Tracking
New forecast layout! Learn more

10-Day Weather Forecast

Advertisements
Track Severe Weather on mobile